sensor_id;sensor_type;location;lat;lon;timestamp;P1;durP1;ratioP1;P2;durP2;ratioP2
49051;SDS011;34866;48.670;18.260;2022-11-11T00:00:23;33.15;;;14.00;;
49051;SDS011;34866;48.670;18.260;2022-11-11T00:02:49;34.58;;;13.95;;
49051;SDS011;34866;48.670;18.260;2022-11-11T00:05:15;34.88;;;14.20;;
49051;SDS011;34866;48.670;18.260;2022-11-11T00:07:41;29.88;;;12.88;;
49051;SDS011;34866;48.670;18.260;2022-11-11T00:10:09;35.80;;;12.57;;
49051;SDS011;34866;48.670;18.260;2022-11-11T00:12:35;33.45;;;11.48;;
49051;SDS011;34866;48.670;18.260;2022-11-11T00:15:00;35.83;;;11.23;;
49051;SDS011;34866;48.670;18.260;2022-11-11T00:17:26;23.70;;;12.82;;
49051;SDS011;34866;48.670;18.260;2022-11-11T00:20:10;57.63;;;11.68;;
49051;SDS011;34866;48.670;18.260;2022-11-11T00:22:55;37.85;;;11.10;;
49051;SDS011;34866;48.670;18.260;2022-11-11T00:25:39;24.02;;;12.45;;
49051;SDS011;34866;48.670;18.260;2022-11-11T00:28:05;23.30;;;10.77;;
49051;SDS011;34866;48.670;18.260;2022-11-11T00:30:31;21.98;;;11.02;;
49051;SDS011;34866;48.670;18.260;2022-11-11T00:33:02;25.25;;;11.05;;
49051;SDS011;34866;48.670;18.260;2022-11-11T00:35:28;21.65;;;11.15;;
49051;SDS011;34866;48.670;18.260;2022-11-11T00:38:12;30.27;;;11.15;;
49051;SDS011;34866;48.670;18.260;2022-11-11T00:40:57;25.42;;;11.43;;
49051;SDS011;34866;48.670;18.260;2022-11-11T00:43:23;25.08;;;12.23;;
49051;SDS011;34866;48.670;18.260;2022-11-11T00:45:54;27.83;;;11.15;;
49051;SDS011;34866;48.670;18.260;2022-11-11T00:48:40;42.35;;;11.55;;
49051;SDS011;34866;48.670;18.260;2022-11-11T00:51:24;23.02;;;10.45;;
49051;SDS011;34866;48.670;18.260;2022-11-11T00:53:50;28.02;;;13.70;;
49051;SDS011;34866;48.670;18.260;2022-11-11T00:56:16;70.22;;;24.02;;
49051;SDS011;34866;48.670;18.260;2022-11-11T00:58:41;36.63;;;15.95;;
49051;SDS011;34866;48.670;18.260;2022-11-11T01:01:07;38.00;;;16.73;;
49051;SDS011;34866;48.670;18.260;2022-11-11T01:03:33;36.78;;;14.43;;
49051;SDS011;34866;48.670;18.260;2022-11-11T01:06:00;30.50;;;13.88;;
49051;SDS011;34866;48.670;18.260;2022-11-11T01:08:27;21.00;;;11.73;;
49051;SDS011;34866;48.670;18.260;2022-11-11T01:10:53;26.65;;;11.55;;
49051;SDS011;34866;48.670;18.260;2022-11-11T01:13:20;26.55;;;10.60;;
49051;SDS011;34866;48.670;18.260;2022-11-11T01:16:06;25.25;;;12.27;;
49051;SDS011;34866;48.670;18.260;2022-11-11T01:18:34;19.00;;;9.13;;
49051;SDS011;34866;48.670;18.260;2022-11-11T01:21:01;20.60;;;9.90;;
49051;SDS011;34866;48.670;18.260;2022-11-11T01:23:38;33.20;;;11.95;;
49051;SDS011;34866;48.670;18.260;2022-11-11T01:26:16;32.38;;;13.18;;
49051;SDS011;34866;48.670;18.260;2022-11-11T01:28:53;23.90;;;10.50;;
49051;SDS011;34866;48.670;18.260;2022-11-11T01:31:21;23.10;;;9.93;;
49051;SDS011;34866;48.670;18.260;2022-11-11T01:33:48;28.65;;;10.65;;
49051;SDS011;34866;48.670;18.260;2022-11-11T01:36:15;22.08;;;9.95;;
49051;SDS011;34866;48.670;18.260;2022-11-11T01:38:49;24.38;;;10.95;;
49051;SDS011;34866;48.670;18.260;2022-11-11T01:41:18;25.90;;;11.63;;
49051;SDS011;34866;48.670;18.260;2022-11-11T01:47:09;29.80;;;12.98;;
49051;SDS011;34866;48.670;18.260;2022-11-11T01:52:25;26.27;;;11.20;;
49051;SDS011;34866;48.670;18.260;2022-11-11T01:55:07;23.23;;;10.70;;
49051;SDS011;34866;48.670;18.260;2022-11-11T02:00:15;21.77;;;10.63;;
49051;SDS011;34866;48.670;18.260;2022-11-11T02:05:17;20.77;;;11.07;;
49051;SDS011;34866;48.670;18.260;2022-11-11T02:08:04;19.30;;;8.45;;
49051;SDS011;34866;48.670;18.260;2022-11-11T02:10:34;18.05;;;8.98;;
49051;SDS011;34866;48.670;18.260;2022-11-11T02:13:02;25.63;;;9.60;;
49051;SDS011;34866;48.670;18.260;2022-11-11T02:15:46;18.83;;;10.38;;
49051;SDS011;34866;48.670;18.260;2022-11-11T02:18:12;18.42;;;9.55;;
49051;SDS011;34866;48.670;18.260;2022-11-11T02:20:38;21.05;;;10.13;;
49051;SDS011;34866;48.670;18.260;2022-11-11T02:25:43;16.52;;;9.23;;
49051;SDS011;34866;48.670;18.260;2022-11-11T02:28:11;18.58;;;10.15;;
49051;SDS011;34866;48.670;18.260;2022-11-11T02:30:44;17.25;;;10.23;;
49051;SDS011;34866;48.670;18.260;2022-11-11T02:33:09;18.58;;;10.63;;
49051;SDS011;34866;48.670;18.260;2022-11-11T02:35:36;26.98;;;10.30;;
49051;SDS011;34866;48.670;18.260;2022-11-11T02:38:05;25.95;;;9.75;;
49051;SDS011;34866;48.670;18.260;2022-11-11T02:43:01;16.63;;;9.15;;
49051;SDS011;34866;48.670;18.260;2022-11-11T02:45:27;22.60;;;10.32;;
49051;SDS011;34866;48.670;18.260;2022-11-11T02:47:52;21.63;;;9.57;;
49051;SDS011;34866;48.670;18.260;2022-11-11T02:50:18;16.23;;;9.20;;
49051;SDS011;34866;48.670;18.260;2022-11-11T02:52:44;28.23;;;9.02;;
49051;SDS011;34866;48.670;18.260;2022-11-11T02:55:10;193.32;;;14.88;;
49051;SDS011;34866;48.670;18.260;2022-11-11T02:57:35;26.52;;;9.50;;
49051;SDS011;34866;48.670;18.260;2022-11-11T03:00:02;38.42;;;11.57;;
49051;SDS011;34866;48.670;18.260;2022-11-11T03:02:28;21.70;;;9.40;;
49051;SDS011;34866;48.670;18.260;2022-11-11T03:04:55;31.77;;;12.95;;
49051;SDS011;34866;48.670;18.260;2022-11-11T03:07:21;19.85;;;10.02;;
49051;SDS011;34866;48.670;18.260;2022-11-11T03:09:48;21.27;;;9.68;;
49051;SDS011;34866;48.670;18.260;2022-11-11T03:12:15;20.48;;;10.68;;
49051;SDS011;34866;48.670;18.260;2022-11-11T03:14:41;22.42;;;9.60;;
49051;SDS011;34866;48.670;18.260;2022-11-11T03:17:07;23.90;;;8.13;;
49051;SDS011;34866;48.670;18.260;2022-11-11T03:19:52;15.48;;;7.22;;
49051;SDS011;34866;48.670;18.260;2022-11-11T03:22:39;14.20;;;7.90;;
49051;SDS011;34866;48.670;18.260;2022-11-11T03:25:05;17.33;;;8.77;;
49051;SDS011;34866;48.670;18.260;2022-11-11T03:27:49;15.18;;;9.20;;
49051;SDS011;34866;48.670;18.260;2022-11-11T03:30:15;26.77;;;10.38;;
49051;SDS011;34866;48.670;18.260;2022-11-11T03:32:46;19.70;;;8.80;;
49051;SDS011;34866;48.670;18.260;2022-11-11T03:35:12;26.13;;;11.02;;
49051;SDS011;34866;48.670;18.260;2022-11-11T03:37:38;16.67;;;8.65;;
49051;SDS011;34866;48.670;18.260;2022-11-11T03:40:22;25.20;;;11.18;;
49051;SDS011;34866;48.670;18.260;2022-11-11T03:42:47;35.95;;;16.65;;
49051;SDS011;34866;48.670;18.260;2022-11-11T03:45:13;29.38;;;11.98;;
49051;SDS011;34866;48.670;18.260;2022-11-11T03:47:39;24.60;;;12.93;;
49051;SDS011;34866;48.670;18.260;2022-11-11T03:50:04;19.15;;;8.45;;
49051;SDS011;34866;48.670;18.260;2022-11-11T03:52:30;20.92;;;8.95;;
49051;SDS011;34866;48.670;18.260;2022-11-11T03:54:56;23.08;;;10.55;;
49051;SDS011;34866;48.670;18.260;2022-11-11T03:57:23;20.15;;;9.10;;
49051;SDS011;34866;48.670;18.260;2022-11-11T03:59:54;24.42;;;8.85;;
49051;SDS011;34866;48.670;18.260;2022-11-11T04:02:21;24.92;;;10.15;;
49051;SDS011;34866;48.670;18.260;2022-11-11T04:05:06;18.90;;;8.98;;
49051;SDS011;34866;48.670;18.260;2022-11-11T04:07:50;21.23;;;9.90;;
49051;SDS011;34866;48.670;18.260;2022-11-11T04:10:34;21.63;;;9.80;;
49051;SDS011;34866;48.670;18.260;2022-11-11T04:13:00;19.08;;;8.05;;
49051;SDS011;34866;48.670;18.260;2022-11-11T04:15:45;13.65;;;7.57;;
49051;SDS011;34866;48.670;18.260;2022-11-11T04:18:30;16.05;;;7.55;;
49051;SDS011;34866;48.670;18.260;2022-11-11T04:21:14;14.45;;;7.60;;
49051;SDS011;34866;48.670;18.260;2022-11-11T04:23:58;16.40;;;6.97;;
49051;SDS011;34866;48.670;18.260;2022-11-11T04:26:24;16.20;;;7.10;;
49051;SDS011;34866;48.670;18.260;2022-11-11T04:28:50;14.70;;;7.03;;
49051;SDS011;34866;48.670;18.260;2022-11-11T04:31:36;14.55;;;6.75;;
49051;SDS011;34866;48.670;18.260;2022-11-11T04:34:22;13.35;;;7.03;;
49051;SDS011;34866;48.670;18.260;2022-11-11T04:36:47;13.30;;;6.22;;
49051;SDS011;34866;48.670;18.260;2022-11-11T04:39:14;14.57;;;6.30;;
49051;SDS011;34866;48.670;18.260;2022-11-11T04:41:59;18.90;;;8.52;;
49051;SDS011;34866;48.670;18.260;2022-11-11T04:44:24;20.45;;;7.80;;
49051;SDS011;34866;48.670;18.260;2022-11-11T04:47:08;14.05;;;7.47;;
49051;SDS011;34866;48.670;18.260;2022-11-11T04:49:34;14.50;;;7.53;;
49051;SDS011;34866;48.670;18.260;2022-11-11T04:52:00;28.50;;;10.75;;
49051;SDS011;34866;48.670;18.260;2022-11-11T04:54:45;14.80;;;7.32;;
49051;SDS011;34866;48.670;18.260;2022-11-11T04:57:29;20.98;;;9.57;;
49051;SDS011;34866;48.670;18.260;2022-11-11T05:00:00;21.33;;;8.23;;
49051;SDS011;34866;48.670;18.260;2022-11-11T05:02:26;17.35;;;9.23;;
49051;SDS011;34866;48.670;18.260;2022-11-11T05:05:10;19.42;;;8.88;;
49051;SDS011;34866;48.670;18.260;2022-11-11T05:07:36;29.77;;;15.02;;
49051;SDS011;34866;48.670;18.260;2022-11-11T05:10:20;27.63;;;11.65;;
49051;SDS011;34866;48.670;18.260;2022-11-11T05:12:46;18.02;;;11.07;;
49051;SDS011;34866;48.670;18.260;2022-11-11T05:15:12;17.25;;;9.57;;
49051;SDS011;34866;48.670;18.260;2022-11-11T05:17:56;30.77;;;11.03;;
49051;SDS011;34866;48.670;18.260;2022-11-11T05:20:40;20.60;;;10.93;;
49051;SDS011;34866;48.670;18.260;2022-11-11T05:23:24;23.88;;;9.70;;
49051;SDS011;34866;48.670;18.260;2022-11-11T05:26:10;24.75;;;8.82;;
49051;SDS011;34866;48.670;18.260;2022-11-11T05:28:36;20.25;;;10.20;;
49051;SDS011;34866;48.670;18.260;2022-11-11T05:31:01;25.15;;;10.45;;
49051;SDS011;34866;48.670;18.260;2022-11-11T05:33:27;18.25;;;8.38;;
49051;SDS011;34866;48.670;18.260;2022-11-11T05:35:52;20.70;;;10.38;;
49051;SDS011;34866;48.670;18.260;2022-11-11T05:38:18;20.05;;;9.23;;
49051;SDS011;34866;48.670;18.260;2022-11-11T05:40:47;19.63;;;9.95;;
49051;SDS011;34866;48.670;18.260;2022-11-11T05:43:12;21.08;;;9.82;;
49051;SDS011;34866;48.670;18.260;2022-11-11T05:45:39;21.15;;;9.32;;
49051;SDS011;34866;48.670;18.260;2022-11-11T05:48:07;12.73;;;6.90;;
49051;SDS011;34866;48.670;18.260;2022-11-11T05:50:32;15.77;;;7.85;;
49051;SDS011;34866;48.670;18.260;2022-11-11T05:53:01;21.00;;;8.55;;
49051;SDS011;34866;48.670;18.260;2022-11-11T05:55:26;15.07;;;6.45;;
49051;SDS011;34866;48.670;18.260;2022-11-11T05:57:52;14.90;;;8.55;;
49051;SDS011;34866;48.670;18.260;2022-11-11T06:00:18;18.63;;;8.77;;
49051;SDS011;34866;48.670;18.260;2022-11-11T06:02:43;18.05;;;8.93;;
49051;SDS011;34866;48.670;18.260;2022-11-11T06:05:09;16.25;;;8.10;;
49051;SDS011;34866;48.670;18.260;2022-11-11T06:07:41;25.63;;;9.70;;
49051;SDS011;34866;48.670;18.260;2022-11-11T06:10:07;15.60;;;9.02;;
49051;SDS011;34866;48.670;18.260;2022-11-11T06:12:56;17.30;;;8.63;;
49051;SDS011;34866;48.670;18.260;2022-11-11T06:15:35;19.52;;;9.95;;
49051;SDS011;34866;48.670;18.260;2022-11-11T06:18:02;23.83;;;10.82;;
49051;SDS011;34866;48.670;18.260;2022-11-11T06:20:32;20.30;;;8.15;;
49051;SDS011;34866;48.670;18.260;2022-11-11T06:23:01;22.75;;;10.05;;
49051;SDS011;34866;48.670;18.260;2022-11-11T06:25:32;19.02;;;9.75;;
49051;SDS011;34866;48.670;18.260;2022-11-11T06:28:16;28.85;;;10.80;;
49051;SDS011;34866;48.670;18.260;2022-11-11T06:30:45;18.35;;;8.48;;
49051;SDS011;34866;48.670;18.260;2022-11-11T06:33:12;20.88;;;9.20;;
49051;SDS011;34866;48.670;18.260;2022-11-11T06:35:38;22.25;;;9.55;;
49051;SDS011;34866;48.670;18.260;2022-11-11T06:38:10;25.58;;;8.45;;
49051;SDS011;34866;48.670;18.260;2022-11-11T06:40:36;24.33;;;9.77;;
49051;SDS011;34866;48.670;18.260;2022-11-11T06:43:01;20.52;;;10.52;;
49051;SDS011;34866;48.670;18.260;2022-11-11T06:45:27;25.08;;;11.30;;
49051;SDS011;34866;48.670;18.260;2022-11-11T06:47:54;21.83;;;9.80;;
49051;SDS011;34866;48.670;18.260;2022-11-11T06:50:27;22.65;;;9.55;;
49051;SDS011;34866;48.670;18.260;2022-11-11T06:53:06;23.83;;;10.25;;
49051;SDS011;34866;48.670;18.260;2022-11-11T06:55:33;25.70;;;8.70;;
49051;SDS011;34866;48.670;18.260;2022-11-11T06:58:15;21.42;;;9.55;;
49051;SDS011;34866;48.670;18.260;2022-11-11T07:00:43;22.50;;;8.70;;
49051;SDS011;34866;48.670;18.260;2022-11-11T07:03:11;17.45;;;8.80;;
49051;SDS011;34866;48.670;18.260;2022-11-11T07:05:38;19.70;;;7.75;;
49051;SDS011;34866;48.670;18.260;2022-11-11T07:08:05;22.30;;;8.43;;
49051;SDS011;34866;48.670;18.260;2022-11-11T07:10:33;16.38;;;7.63;;
49051;SDS011;34866;48.670;18.260;2022-11-11T07:13:00;18.88;;;7.05;;
49051;SDS011;34866;48.670;18.260;2022-11-11T07:15:26;18.77;;;8.18;;
49051;SDS011;34866;48.670;18.260;2022-11-11T07:17:52;16.60;;;8.30;;
49051;SDS011;34866;48.670;18.260;2022-11-11T07:20:18;17.55;;;8.80;;
49051;SDS011;34866;48.670;18.260;2022-11-11T07:22:45;20.50;;;8.88;;
49051;SDS011;34866;48.670;18.260;2022-11-11T07:25:12;16.27;;;8.13;;
49051;SDS011;34866;48.670;18.260;2022-11-11T07:27:38;18.08;;;7.30;;
49051;SDS011;34866;48.670;18.260;2022-11-11T07:30:10;20.25;;;8.63;;
49051;SDS011;34866;48.670;18.260;2022-11-11T07:32:37;23.60;;;10.82;;
49051;SDS011;34866;48.670;18.260;2022-11-11T07:35:10;20.48;;;9.35;;
49051;SDS011;34866;48.670;18.260;2022-11-11T07:37:35;21.60;;;10.05;;
49051;SDS011;34866;48.670;18.260;2022-11-11T07:40:02;25.73;;;10.55;;
49051;SDS011;34866;48.670;18.260;2022-11-11T07:42:28;17.10;;;8.90;;
49051;SDS011;34866;48.670;18.260;2022-11-11T07:44:53;21.75;;;10.07;;
49051;SDS011;34866;48.670;18.260;2022-11-11T07:47:19;21.73;;;12.20;;
49051;SDS011;34866;48.670;18.260;2022-11-11T07:49:45;22.88;;;9.60;;
49051;SDS011;34866;48.670;18.260;2022-11-11T07:52:11;18.10;;;8.35;;
49051;SDS011;34866;48.670;18.260;2022-11-11T07:54:36;19.02;;;8.40;;
49051;SDS011;34866;48.670;18.260;2022-11-11T07:57:02;19.90;;;8.95;;
49051;SDS011;34866;48.670;18.260;2022-11-11T07:59:28;25.42;;;9.95;;
49051;SDS011;34866;48.670;18.260;2022-11-11T08:01:53;26.08;;;12.52;;
49051;SDS011;34866;48.670;18.260;2022-11-11T08:04:19;21.65;;;11.30;;
49051;SDS011;34866;48.670;18.260;2022-11-11T08:06:45;21.02;;;11.15;;
49051;SDS011;34866;48.670;18.260;2022-11-11T08:09:10;25.10;;;11.05;;
49051;SDS011;34866;48.670;18.260;2022-11-11T08:11:36;22.67;;;9.50;;
49051;SDS011;34866;48.670;18.260;2022-11-11T08:14:20;20.48;;;10.23;;
49051;SDS011;34866;48.670;18.260;2022-11-11T08:16:46;26.70;;;11.60;;
49051;SDS011;34866;48.670;18.260;2022-11-11T08:19:13;21.45;;;11.07;;
49051;SDS011;34866;48.670;18.260;2022-11-11T08:21:40;21.40;;;10.23;;
49051;SDS011;34866;48.670;18.260;2022-11-11T08:24:11;25.63;;;10.88;;
49051;SDS011;34866;48.670;18.260;2022-11-11T08:26:36;17.83;;;9.90;;
49051;SDS011;34866;48.670;18.260;2022-11-11T08:29:02;22.10;;;9.70;;
49051;SDS011;34866;48.670;18.260;2022-11-11T08:31:28;14.95;;;8.43;;
49051;SDS011;34866;48.670;18.260;2022-11-11T08:34:03;22.33;;;8.00;;
49051;SDS011;34866;48.670;18.260;2022-11-11T08:36:29;15.35;;;8.05;;
49051;SDS011;34866;48.670;18.260;2022-11-11T08:38:55;14.00;;;6.30;;
49051;SDS011;34866;48.670;18.260;2022-11-11T08:41:20;12.85;;;6.35;;
49051;SDS011;34866;48.670;18.260;2022-11-11T08:43:50;13.45;;;6.82;;
49051;SDS011;34866;48.670;18.260;2022-11-11T08:46:20;13.52;;;6.72;;
49051;SDS011;34866;48.670;18.260;2022-11-11T08:48:47;15.23;;;7.20;;
49051;SDS011;34866;48.670;18.260;2022-11-11T08:51:13;14.68;;;6.47;;
49051;SDS011;34866;48.670;18.260;2022-11-11T08:53:39;13.57;;;5.93;;
49051;SDS011;34866;48.670;18.260;2022-11-11T08:56:05;15.70;;;6.60;;
49051;SDS011;34866;48.670;18.260;2022-11-11T08:58:31;13.60;;;6.65;;
49051;SDS011;34866;48.670;18.260;2022-11-11T09:00:57;9.02;;;5.53;;
49051;SDS011;34866;48.670;18.260;2022-11-11T09:03:23;17.02;;;6.82;;
49051;SDS011;34866;48.670;18.260;2022-11-11T09:05:49;12.68;;;6.45;;
49051;SDS011;34866;48.670;18.260;2022-11-11T09:08:15;13.05;;;5.97;;
49051;SDS011;34866;48.670;18.260;2022-11-11T09:10:40;22.95;;;7.60;;
49051;SDS011;34866;48.670;18.260;2022-11-11T09:13:06;15.73;;;5.43;;
49051;SDS011;34866;48.670;18.260;2022-11-11T09:15:32;15.95;;;6.45;;
49051;SDS011;34866;48.670;18.260;2022-11-11T09:17:58;11.93;;;5.72;;
49051;SDS011;34866;48.670;18.260;2022-11-11T09:20:25;12.48;;;5.55;;
49051;SDS011;34866;48.670;18.260;2022-11-11T09:22:53;14.95;;;5.25;;
49051;SDS011;34866;48.670;18.260;2022-11-11T09:25:19;10.32;;;5.65;;
49051;SDS011;34866;48.670;18.260;2022-11-11T09:27:54;10.65;;;5.88;;
49051;SDS011;34866;48.670;18.260;2022-11-11T09:30:22;16.25;;;5.35;;
49051;SDS011;34866;48.670;18.260;2022-11-11T09:32:49;18.98;;;6.07;;
49051;SDS011;34866;48.670;18.260;2022-11-11T09:35:15;14.93;;;6.30;;
49051;SDS011;34866;48.670;18.260;2022-11-11T09:37:59;11.80;;;5.63;;
49051;SDS011;34866;48.670;18.260;2022-11-11T09:40:26;12.00;;;6.20;;
49051;SDS011;34866;48.670;18.260;2022-11-11T09:43:32;11.07;;;5.57;;
49051;SDS011;34866;48.670;18.260;2022-11-11T09:46:26;9.48;;;4.90;;
49051;SDS011;34866;48.670;18.260;2022-11-11T09:49:19;13.63;;;6.50;;
49051;SDS011;34866;48.670;18.260;2022-11-11T09:54:48;11.30;;;5.45;;
49051;SDS011;34866;48.670;18.260;2022-11-11T09:59:59;9.82;;;5.40;;
49051;SDS011;34866;48.670;18.260;2022-11-11T10:02:33;11.52;;;5.35;;
49051;SDS011;34866;48.670;18.260;2022-11-11T10:05:11;12.65;;;6.47;;
49051;SDS011;34866;48.670;18.260;2022-11-11T10:10:59;11.80;;;5.72;;
49051;SDS011;34866;48.670;18.260;2022-11-11T10:13:33;11.73;;;5.80;;
49051;SDS011;34866;48.670;18.260;2022-11-11T10:19:07;11.20;;;5.28;;
49051;SDS011;34866;48.670;18.260;2022-11-11T10:25:00;9.45;;;5.75;;
49051;SDS011;34866;48.670;18.260;2022-11-11T10:27:35;14.52;;;5.50;;
49051;SDS011;34866;48.670;18.260;2022-11-11T10:30:15;12.70;;;6.03;;
49051;SDS011;34866;48.670;18.260;2022-11-11T10:32:43;13.25;;;5.60;;
49051;SDS011;34866;48.670;18.260;2022-11-11T10:35:17;11.18;;;5.13;;
49051;SDS011;34866;48.670;18.260;2022-11-11T10:37:46;12.18;;;5.57;;
49051;SDS011;34866;48.670;18.260;2022-11-11T10:42:53;9.27;;;5.10;;
49051;SDS011;34866;48.670;18.260;2022-11-11T10:48:09;11.98;;;6.10;;
49051;SDS011;34866;48.670;18.260;2022-11-11T10:50:41;11.95;;;6.53;;
49051;SDS011;34866;48.670;18.260;2022-11-11T10:56:25;11.32;;;5.85;;
49051;SDS011;34866;48.670;18.260;2022-11-11T11:01:31;21.42;;;5.55;;
49051;SDS011;34866;48.670;18.260;2022-11-11T11:04:04;14.05;;;5.35;;
49051;SDS011;34866;48.670;18.260;2022-11-11T11:06:35;16.05;;;5.90;;
49051;SDS011;34866;48.670;18.260;2022-11-11T11:09:07;13.10;;;6.22;;
49051;SDS011;34866;48.670;18.260;2022-11-11T11:11:41;14.10;;;5.90;;
49051;SDS011;34866;48.670;18.260;2022-11-11T11:17:08;13.13;;;5.18;;
49051;SDS011;34866;48.670;18.260;2022-11-11T11:19:39;16.52;;;5.80;;
49051;SDS011;34866;48.670;18.260;2022-11-11T11:22:05;17.17;;;6.25;;
49051;SDS011;34866;48.670;18.260;2022-11-11T11:24:32;14.65;;;6.38;;
49051;SDS011;34866;48.670;18.260;2022-11-11T11:27:01;14.82;;;6.57;;
49051;SDS011;34866;48.670;18.260;2022-11-11T11:32:15;13.05;;;6.07;;
49051;SDS011;34866;48.670;18.260;2022-11-11T11:35:02;15.73;;;6.82;;
49051;SDS011;34866;48.670;18.260;2022-11-11T11:37:28;17.25;;;6.68;;
49051;SDS011;34866;48.670;18.260;2022-11-11T11:40:04;14.40;;;7.03;;
49051;SDS011;34866;48.670;18.260;2022-11-11T11:42:34;17.50;;;8.02;;
49051;SDS011;34866;48.670;18.260;2022-11-11T11:53:24;18.50;;;8.40;;
49051;SDS011;34866;48.670;18.260;2022-11-11T11:58:57;14.75;;;6.82;;
49051;SDS011;34866;48.670;18.260;2022-11-11T12:21:16;13.77;;;7.13;;
49051;SDS011;34866;48.670;18.260;2022-11-11T12:42:16;21.17;;;7.43;;
49051;SDS011;34866;48.670;18.260;2022-11-11T12:50:48;15.15;;;6.10;;
49051;SDS011;34866;48.670;18.260;2022-11-11T12:58:59;14.77;;;6.13;;
49051;SDS011;34866;48.670;18.260;2022-11-11T13:07:32;12.48;;;6.25;;
49051;SDS011;34866;48.670;18.260;2022-11-11T13:13:29;11.90;;;6.78;;
49051;SDS011;34866;48.670;18.260;2022-11-11T13:16:15;10.63;;;6.20;;
49051;SDS011;34866;48.670;18.260;2022-11-11T13:21:21;17.45;;;7.43;;
49051;SDS011;34866;48.670;18.260;2022-11-11T13:24:11;17.20;;;7.43;;
49051;SDS011;34866;48.670;18.260;2022-11-11T13:26:46;18.48;;;7.78;;
49051;SDS011;34866;48.670;18.260;2022-11-11T13:31:56;16.45;;;7.45;;
49051;SDS011;34866;48.670;18.260;2022-11-11T13:34:23;18.30;;;7.80;;
49051;SDS011;34866;48.670;18.260;2022-11-11T13:36:51;17.02;;;7.45;;
49051;SDS011;34866;48.670;18.260;2022-11-11T13:39:44;17.40;;;7.85;;
49051;SDS011;34866;48.670;18.260;2022-11-11T13:42:12;20.05;;;8.32;;
49051;SDS011;34866;48.670;18.260;2022-11-11T13:44:48;16.92;;;8.13;;
49051;SDS011;34866;48.670;18.260;2022-11-11T13:47:18;29.05;;;8.65;;
49051;SDS011;34866;48.670;18.260;2022-11-11T13:50:31;21.38;;;7.85;;
49051;SDS011;34866;48.670;18.260;2022-11-11T13:52:57;14.85;;;7.13;;
49051;SDS011;34866;48.670;18.260;2022-11-11T13:55:38;15.95;;;6.82;;
49051;SDS011;34866;48.670;18.260;2022-11-11T13:58:16;15.50;;;6.70;;
49051;SDS011;34866;48.670;18.260;2022-11-11T14:00:56;15.85;;;7.00;;
49051;SDS011;34866;48.670;18.260;2022-11-11T14:11:29;15.18;;;8.63;;
49051;SDS011;34866;48.670;18.260;2022-11-11T14:13:57;24.85;;;9.63;;
49051;SDS011;34866;48.670;18.260;2022-11-11T14:19:26;20.02;;;8.43;;
49051;SDS011;34866;48.670;18.260;2022-11-11T14:24:50;21.40;;;9.20;;
49051;SDS011;34866;48.670;18.260;2022-11-11T14:27:24;21.40;;;9.68;;
49051;SDS011;34866;48.670;18.260;2022-11-11T14:29:53;22.98;;;9.88;;
49051;SDS011;34866;48.670;18.260;2022-11-11T14:52:22;34.70;;;12.88;;
49051;SDS011;34866;48.670;18.260;2022-11-11T14:58:07;38.20;;;11.77;;
49051;SDS011;34866;48.670;18.260;2022-11-11T15:12:03;29.33;;;12.18;;
49051;SDS011;34866;48.670;18.260;2022-11-11T15:14:56;25.55;;;12.82;;
49051;SDS011;34866;48.670;18.260;2022-11-11T15:25:30;39.95;;;15.05;;
49051;SDS011;34866;48.670;18.260;2022-11-11T15:39:04;34.17;;;13.02;;
49051;SDS011;34866;48.670;18.260;2022-11-11T15:41:40;28.35;;;12.65;;
49051;SDS011;34866;48.670;18.260;2022-11-11T15:46:58;41.53;;;13.57;;
49051;SDS011;34866;48.670;18.260;2022-11-11T15:52:33;25.10;;;11.57;;
49051;SDS011;34866;48.670;18.260;2022-11-11T15:54:59;32.78;;;13.60;;
49051;SDS011;34866;48.670;18.260;2022-11-11T16:00:00;30.08;;;11.75;;
49051;SDS011;34866;48.670;18.260;2022-11-11T16:02:34;31.50;;;13.18;;
49051;SDS011;34866;48.670;18.260;2022-11-11T16:05:02;34.30;;;15.10;;
49051;SDS011;34866;48.670;18.260;2022-11-11T16:07:35;37.53;;;13.50;;
49051;SDS011;34866;48.670;18.260;2022-11-11T16:10:07;30.48;;;13.05;;
49051;SDS011;34866;48.670;18.260;2022-11-11T16:18:26;25.42;;;12.38;;
49051;SDS011;34866;48.670;18.260;2022-11-11T16:21:04;33.35;;;14.02;;
49051;SDS011;34866;48.670;18.260;2022-11-11T16:25:57;33.47;;;13.65;;
49051;SDS011;34866;48.670;18.260;2022-11-11T16:28:24;28.38;;;12.25;;
49051;SDS011;34866;48.670;18.260;2022-11-11T16:30:55;31.92;;;14.13;;
49051;SDS011;34866;48.670;18.260;2022-11-11T16:35:52;29.80;;;15.77;;
49051;SDS011;34866;48.670;18.260;2022-11-11T16:38:30;33.35;;;15.70;;
49051;SDS011;34866;48.670;18.260;2022-11-11T16:40:57;43.63;;;17.90;;
49051;SDS011;34866;48.670;18.260;2022-11-11T16:43:23;44.95;;;18.90;;
49051;SDS011;34866;48.670;18.260;2022-11-11T16:45:52;74.15;;;30.80;;
49051;SDS011;34866;48.670;18.260;2022-11-11T16:51:23;115.22;;;40.10;;
49051;SDS011;34866;48.670;18.260;2022-11-11T16:54:13;107.05;;;41.60;;
49051;SDS011;34866;48.670;18.260;2022-11-11T16:56:44;121.50;;;47.47;;
49051;SDS011;34866;48.670;18.260;2022-11-11T16:59:16;116.63;;;43.30;;
49051;SDS011;34866;48.670;18.260;2022-11-11T17:01:47;108.97;;;40.83;;
49051;SDS011;34866;48.670;18.260;2022-11-11T17:04:13;86.15;;;34.20;;
49051;SDS011;34866;48.670;18.260;2022-11-11T17:06:46;86.50;;;33.55;;
49051;SDS011;34866;48.670;18.260;2022-11-11T17:09:29;68.70;;;28.58;;
49051;SDS011;34866;48.670;18.260;2022-11-11T17:11:56;60.70;;;27.38;;
49051;SDS011;34866;48.670;18.260;2022-11-11T17:14:27;76.15;;;29.65;;
49051;SDS011;34866;48.670;18.260;2022-11-11T17:16:55;64.53;;;28.40;;
49051;SDS011;34866;48.670;18.260;2022-11-11T17:19:23;73.03;;;28.77;;
49051;SDS011;34866;48.670;18.260;2022-11-11T17:21:49;80.97;;;30.20;;
49051;SDS011;34866;48.670;18.260;2022-11-11T17:24:15;73.78;;;31.08;;
49051;SDS011;34866;48.670;18.260;2022-11-11T17:26:48;65.00;;;26.23;;
49051;SDS011;34866;48.670;18.260;2022-11-11T17:29:21;64.00;;;24.13;;
49051;SDS011;34866;48.670;18.260;2022-11-11T17:32:00;59.85;;;23.45;;
49051;SDS011;34866;48.670;18.260;2022-11-11T17:34:32;65.88;;;24.83;;
49051;SDS011;34866;48.670;18.260;2022-11-11T17:36:58;65.50;;;25.15;;
49051;SDS011;34866;48.670;18.260;2022-11-11T17:39:23;73.38;;;27.10;;
49051;SDS011;34866;48.670;18.260;2022-11-11T17:41:49;81.53;;;28.67;;
49051;SDS011;34866;48.670;18.260;2022-11-11T17:44:15;80.15;;;30.15;;
49051;SDS011;34866;48.670;18.260;2022-11-11T17:46:40;82.82;;;30.95;;
49051;SDS011;34866;48.670;18.260;2022-11-11T17:49:07;76.10;;;28.35;;
49051;SDS011;34866;48.670;18.260;2022-11-11T17:51:33;86.32;;;29.27;;
49051;SDS011;34866;48.670;18.260;2022-11-11T17:54:00;81.97;;;31.27;;
49051;SDS011;34866;48.670;18.260;2022-11-11T17:56:26;70.35;;;28.25;;
49051;SDS011;34866;48.670;18.260;2022-11-11T17:58:52;72.72;;;27.70;;
49051;SDS011;34866;48.670;18.260;2022-11-11T18:01:19;78.97;;;28.90;;
49051;SDS011;34866;48.670;18.260;2022-11-11T18:03:45;73.28;;;27.77;;
49051;SDS011;34866;48.670;18.260;2022-11-11T18:06:11;80.60;;;30.00;;
49051;SDS011;34866;48.670;18.260;2022-11-11T18:08:37;88.43;;;34.15;;
49051;SDS011;34866;48.670;18.260;2022-11-11T18:11:04;73.05;;;33.33;;